createdAt,value
2023-02-03T00:04:31.598Z,8.50
2023-02-03T00:09:34.652Z,6.90
2023-02-03T00:14:38.063Z,11.10
2023-02-03T00:19:41.205Z,9.00
2023-02-03T00:24:44.136Z,12.70
2023-02-03T00:29:46.745Z,11.80
2023-02-03T00:34:49.250Z,11.20
2023-02-03T00:39:52.002Z,15.20
2023-02-03T00:44:54.635Z,11.60
2023-02-03T00:49:58.118Z,13.20
2023-02-03T00:55:01.130Z,10.10
2023-02-03T01:00:04.707Z,10.40
2023-02-03T01:05:08.334Z,10.80
2023-02-03T01:10:10.991Z,12.40
2023-02-03T01:15:13.634Z,9.60
2023-02-03T01:20:17.186Z,13.00
2023-02-03T01:25:19.791Z,8.50
2023-02-03T01:30:22.481Z,7.60
2023-02-03T01:35:25.086Z,13.10
2023-02-03T01:40:28.040Z,8.00
2023-02-03T01:45:31.022Z,6.40
2023-02-03T01:50:37.301Z,11.60
2023-02-03T01:55:44.972Z,8.60
2023-02-03T02:00:49.724Z,6.60
2023-02-03T02:06:10.965Z,5.70
2023-02-03T02:11:13.975Z,7.70
2023-02-03T02:16:25.768Z,7.20
2023-02-03T02:21:47.615Z,6.40
2023-02-03T02:27:29.118Z,5.10
2023-02-03T02:32:51.476Z,6.20
2023-02-03T02:38:04.414Z,6.40
2023-02-03T02:43:20.328Z,6.30
2023-02-03T02:48:29.944Z,5.80
2023-02-03T02:53:37.678Z,5.20
2023-02-03T02:58:43.911Z,6.20
2023-02-03T03:03:46.839Z,6.30
2023-02-03T03:09:01.331Z,6.30
2023-02-03T03:14:06.561Z,5.50
2023-02-03T03:19:17.697Z,4.70
2023-02-03T03:24:33.709Z,3.90
2023-02-03T03:29:47.483Z,3.60
2023-02-03T03:34:51.479Z,3.40
2023-02-03T03:39:59.787Z,3.70
2023-02-03T03:45:25.266Z,3.70
2023-02-03T03:50:31.667Z,2.80
2023-02-03T03:55:37.180Z,5.00
2023-02-03T04:00:41.743Z,2.80
2023-02-03T04:05:44.508Z,3.70
2023-02-03T04:10:47.330Z,3.10
2023-02-03T04:15:50.128Z,3.30
2023-02-03T04:20:52.904Z,2.80
2023-02-03T04:25:55.638Z,3.20
2023-02-03T04:31:01.428Z,3.90
2023-02-03T04:36:04.399Z,4.90
2023-02-03T04:41:07.208Z,6.30
2023-02-03T04:46:10.534Z,5.30
2023-02-03T04:51:13.353Z,7.50
2023-02-03T04:56:16.609Z,5.70
2023-02-03T05:01:19.445Z,6.10
2023-02-03T05:06:25.340Z,6.90
2023-02-03T05:11:28.233Z,8.20
2023-02-03T05:16:31.192Z,9.60
2023-02-03T05:21:34.423Z,12.50
2023-02-03T05:26:37.053Z,16.90
2023-02-03T05:31:39.703Z,16.70
2023-02-03T05:36:42.359Z,15.70
2023-02-03T05:41:55.341Z,17.70
2023-02-03T05:46:59.935Z,19.30
2023-02-03T05:52:02.723Z,22.80
2023-02-03T05:57:05.407Z,26.40
2023-02-03T06:02:08.428Z,30.20
2023-02-03T06:07:11.202Z,25.90
2023-02-03T06:12:15.282Z,27.40
2023-02-03T06:17:17.948Z,27.30
2023-02-03T06:22:20.594Z,24.80
2023-02-03T06:27:23.295Z,26.10
2023-02-03T06:32:26.117Z,23.00
2023-02-03T06:37:28.738Z,24.00
2023-02-03T06:42:31.469Z,25.60
2023-02-03T06:47:34.225Z,22.60
2023-02-03T06:52:37.022Z,24.30
2023-02-03T06:57:50.539Z,24.60
2023-02-03T07:02:58.205Z,23.70
2023-02-03T07:08:01.467Z,20.60
2023-02-03T07:13:07.501Z,23.40
2023-02-03T07:18:10.108Z,23.90
2023-02-03T07:23:12.990Z,20.20
2023-02-03T07:28:15.612Z,22.60
2023-02-03T07:33:18.875Z,23.20
2023-02-03T07:38:22.231Z,21.10
2023-02-03T07:43:25.434Z,20.90
2023-02-03T07:48:28.327Z,17.00
2023-02-03T07:53:32.017Z,21.30
2023-02-03T07:58:34.648Z,15.20
2023-02-03T08:03:37.354Z,14.20
2023-02-03T08:08:41.126Z,14.50
2023-02-03T08:13:44.143Z,13.50
2023-02-03T08:18:46.754Z,12.70
2023-02-03T08:23:49.439Z,10.70
2023-02-03T08:28:52.141Z,13.20
2023-02-03T08:33:54.714Z,8.30
2023-02-03T08:39:00.702Z,10.70
2023-02-03T08:44:03.289Z,10.40
2023-02-03T08:49:06.310Z,12.60
2023-02-03T08:54:08.901Z,12.30
2023-02-03T08:59:13.164Z,8.50
2023-02-03T09:04:19.444Z,11.10
2023-02-03T09:09:23.086Z,9.30
2023-02-03T09:14:27.267Z,7.50
2023-02-03T09:19:30.776Z,7.90
2023-02-03T09:24:33.501Z,6.10
2023-02-03T09:29:36.533Z,5.60
2023-02-03T09:34:41.301Z,5.80
2023-02-03T09:39:43.828Z,5.10
2023-02-03T09:45:13.541Z,4.90
2023-02-03T09:50:22.279Z,4.10
2023-02-03T09:55:41.020Z,4.20
2023-02-03T10:01:01.320Z,5.40
2023-02-03T10:06:14.105Z,4.10
2023-02-03T10:11:42.980Z,4.80
2023-02-03T10:17:16.799Z,5.80
2023-02-03T10:22:27.398Z,3.90
2023-02-03T10:27:33.304Z,6.80
2023-02-03T10:32:37.460Z,4.40
2023-02-03T10:37:45.475Z,2.30
2023-02-03T10:43:08.204Z,2.90
2023-02-03T10:48:17.092Z,6.70
2023-02-03T10:53:40.019Z,5.80
2023-02-03T10:58:51.566Z,6.60
2023-02-03T11:03:59.096Z,7.20
2023-02-03T11:09:01.628Z,7.70
2023-02-03T11:14:04.152Z,9.20
2023-02-03T11:19:16.990Z,7.80
2023-02-03T11:24:29.692Z,11.60
2023-02-03T11:29:37.961Z,10.80
2023-02-03T11:34:48.441Z,8.00
2023-02-03T11:39:50.969Z,9.30
2023-02-03T11:45:14.289Z,11.20
2023-02-03T11:50:42.230Z,11.60
2023-02-03T11:56:06.812Z,14.10
2023-02-03T12:01:27.471Z,15.40
2023-02-03T12:07:01.348Z,15.10
2023-02-03T12:12:35.381Z,12.10
2023-02-03T12:18:03.529Z,22.60
2023-02-03T12:23:26.428Z,20.40
2023-02-03T12:28:58.701Z,16.50
2023-02-03T12:39:11.843Z,19.60
2023-02-03T12:44:28.854Z,16.10
2023-02-03T12:49:52.583Z,27.40
2023-02-03T12:55:13.805Z,7.00
2023-02-03T13:00:30.297Z,10.70
2023-02-03T13:05:39.165Z,11.70
2023-02-03T13:10:59.286Z,8.80
2023-02-03T13:16:08.053Z,8.20
2023-02-03T13:21:12.504Z,11.60
2023-02-03T13:26:35.910Z,11.60
2023-02-03T13:32:03.988Z,16.20
2023-02-03T13:37:36.611Z,22.40
2023-02-03T13:42:45.831Z,18.20
2023-02-03T13:47:52.712Z,15.40
2023-02-03T13:53:23.687Z,14.60
2023-02-03T13:58:35.240Z,13.50
2023-02-03T14:03:37.821Z,19.40
2023-02-03T14:08:48.623Z,25.20
2023-02-03T14:13:51.603Z,22.80
2023-02-03T14:18:56.661Z,20.50
2023-02-03T14:24:05.532Z,20.20
2023-02-03T14:29:32.172Z,20.80
2023-02-03T14:34:41.765Z,18.40
2023-02-03T14:39:57.396Z,18.40
2023-02-03T14:45:16.611Z,18.40
2023-02-03T14:50:40.946Z,19.20
2023-02-03T14:56:18.093Z,22.80
2023-02-03T15:01:46.207Z,23.60
2023-02-03T15:06:51.455Z,25.20
2023-02-03T15:11:55.382Z,22.30
2023-02-03T15:17:01.121Z,22.30
2023-02-03T15:22:19.162Z,21.70
2023-02-03T15:27:27.457Z,22.10
2023-02-03T15:32:41.424Z,25.90
2023-02-03T15:38:03.135Z,19.00
2023-02-03T15:43:38.522Z,16.10
2023-02-03T15:48:47.363Z,19.50
2023-02-03T15:53:58.518Z,9.00
2023-02-03T15:59:01.167Z,15.50
2023-02-03T16:04:11.372Z,16.40
2023-02-03T16:09:34.556Z,17.70
2023-02-03T16:14:37.870Z,20.40
2023-02-03T16:19:41.373Z,18.00
2023-02-03T16:24:46.077Z,23.00
2023-02-03T16:30:07.641Z,19.70
2023-02-03T16:35:29.619Z,18.80
2023-02-03T16:40:51.271Z,15.70
2023-02-03T16:46:14.863Z,17.10
2023-02-03T16:51:17.427Z,11.70
2023-02-03T16:56:20.235Z,19.70
2023-02-03T17:01:23.137Z,18.80
2023-02-03T17:06:25.955Z,21.00
2023-02-03T17:11:28.522Z,20.30
2023-02-03T17:16:33.448Z,14.20
2023-02-03T17:21:36.043Z,22.40
2023-02-03T17:26:38.613Z,23.10
2023-02-03T17:31:41.230Z,16.10
2023-02-03T17:36:43.931Z,15.20
2023-02-03T17:57:47.387Z,14.90
2023-02-03T18:02:51.232Z,26.50
2023-02-03T18:07:54.927Z,20.00
2023-02-03T18:12:57.895Z,16.60
2023-02-03T18:18:00.418Z,20.00
2023-02-03T18:23:03.049Z,13.00
2023-02-03T18:28:05.691Z,15.60
2023-02-03T18:33:08.386Z,16.90
2023-02-03T18:38:10.922Z,16.50
2023-02-03T18:43:13.490Z,12.10
2023-02-03T18:48:16.109Z,16.20
2023-02-03T18:53:18.766Z,12.50
2023-02-03T18:58:21.612Z,16.60
2023-02-03T19:03:26.747Z,11.90
2023-02-03T19:08:29.299Z,12.10
2023-02-03T19:13:32.030Z,14.40
2023-02-03T19:18:36.186Z,11.90
2023-02-03T19:23:40.654Z,13.30
2023-02-03T19:28:43.230Z,11.40
2023-02-03T19:33:46.004Z,10.50
2023-02-03T19:38:48.583Z,11.70
2023-02-03T19:43:52.259Z,12.60
2023-02-03T19:48:54.755Z,11.60
2023-02-03T19:53:58.845Z,8.80
2023-02-03T19:59:01.608Z,7.50
2023-02-03T20:04:05.175Z,9.30
2023-02-03T20:09:07.871Z,9.70
2023-02-03T20:14:12.609Z,11.00
2023-02-03T20:19:15.154Z,9.10
2023-02-03T20:24:17.814Z,11.30
2023-02-03T20:29:20.365Z,11.50
2023-02-03T20:34:22.972Z,7.90
2023-02-03T20:39:25.725Z,8.90
2023-02-03T20:44:28.467Z,9.70
2023-02-03T20:49:31.036Z,6.70
2023-02-03T20:54:33.718Z,6.80
2023-02-03T20:59:36.749Z,4.00
2023-02-03T21:04:57.829Z,4.90
2023-02-03T21:10:01.607Z,4.30
2023-02-03T21:15:18.521Z,1.50
2023-02-03T21:20:32.176Z,2.80
2023-02-03T21:25:35.298Z,0.60
2023-02-03T21:30:37.921Z,3.30
2023-02-03T21:35:40.870Z,1.30
2023-02-03T21:40:43.374Z,1.00
2023-02-03T21:45:46.006Z,1.70
2023-02-03T21:50:48.577Z,2.00
2023-02-03T21:55:51.249Z,2.20
2023-02-03T22:00:56.049Z,2.00
2023-02-03T22:06:15.110Z,1.10
2023-02-03T22:11:20.107Z,0.50
2023-02-03T22:16:23.247Z,1.10
2023-02-03T22:21:26.003Z,1.20
2023-02-03T22:26:28.598Z,2.90
2023-02-03T22:31:31.397Z,1.30
2023-02-03T22:36:33.994Z,2.00
2023-02-03T22:41:36.565Z,2.30
2023-02-03T22:46:39.062Z,1.30
2023-02-03T22:51:41.764Z,1.70
2023-02-03T22:56:44.269Z,1.90
2023-02-03T23:01:46.852Z,1.60
2023-02-03T23:06:49.447Z,1.60
2023-02-03T23:11:52.150Z,2.90
2023-02-03T23:16:54.643Z,1.80
2023-02-03T23:21:57.230Z,1.50
2023-02-03T23:26:59.918Z,2.80
2023-02-03T23:32:02.883Z,2.10
2023-02-03T23:37:05.564Z,1.70
2023-02-03T23:42:08.880Z,1.90
2023-02-03T23:47:11.517Z,2.50
2023-02-03T23:52:14.213Z,2.80
2023-02-03T23:57:16.768Z,2.50
